• Join FlightAware (Why Join?)
  • Login
  • US Flag 
06:40PM EST


 

Airport Tracker/Info


-or-


 

Live Flight TrackerFlight Track Log ✈ DAL4888 ✈ 27-Jun-2013 ✈ KMLU - KATL

Flight Track Log - Related Links

Times and Time Zones

All times are in EDT time to prevent confusion due to time zone crossing. See the DAL4888 flight status page for this flight to view local times or setup timezone preferences in your user account.

Time Position Orientation Groundspeed Altitude Reporting Facility
EDT Latitude Longitude Course Direction KTS MPH feet Rate Location/Type
08:32PM 32.4547 -91.9822 90° East 236 272 4,800  Level Memphis Center
08:33PM 32.4456 -91.8886 97° East 270 311 7,700 2,700 Climbing Memphis Center
08:34PM 32.4486 -91.7925 88° East 285 328 10,200 1,860 Climbing Memphis Center
08:35PM 32.4458 -91.6867 92° East 304 350 11,500 1,500 Climbing Memphis Center
08:36PM 32.4833 -91.4816 90° East  Level FlightAware Approximate
08:36PM 32.4406 -91.5708 93° East 331 381 13,300  Level Memphis Center
08:37PM 32.4833 -91.3711 90° East  Level FlightAware Approximate
08:37PM 32.4417 -91.4478 89° East 353 406 14,700  Level Memphis Center
08:38PM 32.4406 -91.3247 91° East 365 420 16,200 1,860 Climbing Memphis Center
08:39PM 32.4394 -91.2139 91° East 370 426 18,500 2,220 Climbing Memphis Center
08:40PM 32.4381 -91.0958 91° East 360 414 20,700 1,800 Climbing Memphis Center
08:41PM 32.4344 -90.9850 92° East 350 403 22,100 1,260 Climbing Memphis Center
08:43PM 32.4559 -90.7882 94° East  Level FlightAware Approximate
08:44PM 32.4294 -90.6231 94° East 356 410 25,800  Level Memphis Center
08:45PM 32.4233 -90.5000 93° East 366 421 27,000 600 Climbing Memphis Center
08:46PM 32.4214 -90.3722 91° East 372 428 27,000  Level Memphis Center
08:47PM 32.4192 -90.2492 91° East 372 428 27,000  Level Memphis Center
08:48PM 32.4169 -90.1236 91° East 377 434 27,000  Level Memphis Center
08:49PM 32.4147 -90.0006 91° East 377 434 27,000  Level Memphis Center
08:50PM 32.4100 -89.8678 92° East 371 427 27,000  Level Memphis Center
08:51PM 32.4075 -89.7519 91° East 365 420 27,000  Level Memphis Center
08:52PM 32.4047 -89.6289 91° East 365 420 27,000  Level Memphis Center
08:53PM 32.3997 -89.5083 93° East 365 420 27,000  Level Memphis Center
08:54PM 32.3967 -89.3881 92° East 365 420 27,000  Level Memphis Center
08:55PM 32.3956 -89.2650 91° East 365 420 27,000  Level Memphis Center
08:56PM 32.3883 -89.1419 94° East 365 420 27,000  Level Memphis Center
08:57PM 32.3869 -89.0189 91° East 370 426 27,000  Level Memphis Center
08:58PM 32.3814 -88.9011 93° East 365 420 27,000  Level Memphis Center
09:00PM 32.3972 -88.6486 86° East 363 418 27,000  Level Atlanta Center
09:01PM 32.4122 -88.5264 82° East 368 423 27,000  Level Atlanta Center
09:02PM 32.4269 -88.4067 82° East 368 423 27,000  Level Atlanta Center
09:03PM 32.4394 -88.2892 83° East 363 418 27,000  Level Atlanta Center
09:04PM 32.4539 -88.1692 82° East 369 425 27,000  Level Atlanta Center
09:05PM 32.4683 -88.0492 82° East 369 425 27,000  Level Atlanta Center
09:06PM 32.4847 -87.9244 81° East 375 432 27,000  Level Atlanta Center
09:07PM 32.5114 -87.8097 75° East 375 432 27,000  Level Atlanta Center
09:08PM 32.5378 -87.6928 75° East 369 425 27,000  Level Atlanta Center
09:09PM 32.5664 -87.5756 74° East 364 419 27,000  Level Atlanta Center
09:10PM 32.5864 -87.4581 79° East 364 419 27,000  Level Atlanta Center
09:11PM 32.6125 -87.3431 75° East 364 419 27,000 -480 Level Atlanta Center
09:12PM 32.6386 -87.2233 75° East 364 419 26,100 -1,080 Descending Atlanta Center
09:13PM 32.6667 -87.0961 75° East 374 430 24,900 -1,080 Descending Atlanta Center
09:14PM 32.6928 -86.9711 76° East 381 438 24,000 -480 Descending Atlanta Center
09:15PM 32.7189 -86.8411 77° East 393 452 24,000  Level Atlanta Center
09:16PM 32.7467 -86.7136 75° East 393 452 24,000  Level Atlanta Center
09:17PM 32.7722 -86.5883 76° East 393 452 24,000  Level Atlanta Center
09:18PM 32.7978 -86.4631 76° East 393 452 24,000  Level Atlanta Center
09:19PM 32.8253 -86.3353 76° East 393 452 24,000  Level Atlanta Center
09:20PM 32.8506 -86.2025 77° East 400 460 24,000  Level Atlanta Center
09:21PM 32.8819 -86.0819 73° East 390 449 24,000  Level Atlanta Center
09:22PM 32.9172 -85.9592 71° East 390 449 24,000  Level Atlanta Center
09:23PM 32.9525 -85.8361 71° East 390 449 24,000  Level Atlanta Center
09:24PM 32.9897 -85.7156 70° East 385 443 24,000  Level Atlanta Center
09:25PM 33.0225 -85.5972 72° East 380 437 24,000  Level Atlanta Center
09:26PM 33.0575 -85.4739 71° East 380 437 24,000  Level Atlanta Center
09:27PM 33.0922 -85.3578 70° East 380 437 24,000 -1,920 Level Atlanta Center
09:28PM 33.1247 -85.2417 71° East 370 426 20,200 -4,320 Descending Atlanta Center
09:29PM 33.1569 -85.1331 70° East 359 413 15,400 -3,120 Descending Atlanta Center
09:30PM 33.1975 -85.0169 67° East 364 419 14,000 -720 Descending Atlanta Center
09:31PM 33.2631 -84.9283 48° Northeast 359 413 14,000 -720 Level Atlanta Center
09:32PM 33.3094 -84.8292 61° Northeast 346 398 12,600 -1,020 Descending Atlanta Center
09:33PM 33.3539 -84.7353 60° Northeast 330 380 12,000 -300 Descending Atlanta Center
09:34PM 33.4147 -84.6833 35° Northeast 274 315 12,000  Level Atlanta Center
09:35PM 33.4667 -84.7486 314° West 209 241 12,000  Level Atlanta Center
09:36PM 33.4306 -84.8353 243° Southwest 168 193 12,000  Level Atlanta Center
09:37PM 33.3656 -84.9019 221° Southwest 263 303 12,000  Level Atlanta Center
09:38PM 33.2925 -84.8639 156° South 255 293 12,000  Level Atlanta Center
09:40PM 33.3667 -84.7500 52° Northeast 259 298 12,100  Climbing Atlanta TRACON
09:41PM 33.4333 -84.7667 348° North 262 302 12,100  Level Atlanta TRACON
09:42PM 33.5000 -84.8167 328° Northwest 286 329 12,100  Level Atlanta TRACON
09:43PM 33.5667 -84.8833 320° Northwest 306 352 12,100  Level Atlanta TRACON
09:44PM 33.6500 -84.9000 351° North 279 321 12,100  Level Atlanta TRACON
09:45PM 33.7333 -84.9167 351° North 286 329 12,100  Level Atlanta TRACON
09:46PM 33.7667 -84.8333 64° Northeast 306 352 12,100  Level Atlanta TRACON
09:47PM 33.7667 -84.7333 90° East 321 369 12,100  Level Atlanta TRACON
09:48PM 33.7500 -84.6333 101° East 309 356 12,100 -120 Level Atlanta TRACON
09:49PM 33.7500 -84.5000 90° East 310 357 11,900 -1,020 Descending Atlanta TRACON
09:50PM 33.7333 -84.4167 104° East 276 318 9,900 -2,160 Descending Atlanta TRACON
09:51PM 33.7333 -84.3333 90° East 262 302 8,100 -2,160 Descending Atlanta TRACON
09:52PM 33.7167 -84.2500 103° East 254 292 6,100 -2,100 Descending Atlanta TRACON
09:53PM 33.6667 -84.2333 164° South 257 296 3,900 -1,560 Descending Atlanta TRACON
09:54PM 33.6500 -84.3000 253° West 208 239 2,700 -1,020 Descending Atlanta TRACON